createdAt,value
2023-03-18T00:00:38.773Z,10.13
2023-03-18T00:03:11.501Z,9.85
2023-03-18T00:05:43.450Z,9.73
2023-03-18T00:08:15.278Z,10.23
2023-03-18T00:10:51.259Z,10.20
2023-03-18T00:13:23.107Z,9.80
2023-03-18T00:15:55.235Z,9.32
2023-03-18T00:18:27.490Z,9.88
2023-03-18T00:21:01.066Z,9.68
2023-03-18T00:23:34.022Z,8.77
2023-03-18T00:26:06.807Z,8.32
2023-03-18T00:28:38.635Z,8.68
2023-03-18T00:31:11.968Z,9.15
2023-03-18T00:33:45.905Z,9.38
2023-03-18T00:36:25.603Z,9.68
2023-03-18T00:38:58.130Z,9.27
2023-03-18T00:41:33.106Z,8.95
2023-03-18T00:44:05.842Z,8.20
2023-03-18T00:46:38.316Z,8.50
2023-03-18T00:49:11.054Z,8.32
2023-03-18T00:51:43.118Z,8.73
2023-03-18T00:54:18.715Z,8.52
2023-03-18T00:56:50.730Z,8.15
2023-03-18T00:59:22.622Z,9.07
2023-03-18T01:01:55.274Z,8.52
2023-03-18T01:04:28.118Z,8.82
2023-03-18T01:07:00.023Z,8.68
2023-03-18T01:09:32.149Z,8.25
2023-03-18T01:12:04.441Z,8.00
2023-03-18T01:14:38.127Z,8.80
2023-03-18T01:17:10.750Z,8.05
2023-03-18T01:19:43.574Z,8.48
2023-03-18T01:22:15.928Z,8.25
2023-03-18T01:24:51.826Z,8.32
2023-03-18T01:27:28.566Z,7.70
2023-03-18T01:30:03.878Z,7.95
2023-03-18T01:32:36.267Z,8.73
2023-03-18T01:35:08.615Z,8.73
2023-03-18T01:37:40.538Z,8.63
2023-03-18T01:40:17.331Z,7.55
2023-03-18T01:42:59.895Z,8.10
2023-03-18T01:45:37.021Z,8.07
2023-03-18T01:48:15.608Z,7.82
2023-03-18T01:50:55.867Z,7.68
2023-03-18T01:53:35.680Z,7.80
2023-03-18T01:56:09.092Z,7.93
2023-03-18T01:58:46.019Z,8.20
2023-03-18T02:01:35.255Z,8.60
2023-03-18T02:04:11.049Z,7.60
2023-03-18T02:06:45.886Z,8.07
2023-03-18T02:09:17.790Z,7.97
2023-03-18T02:11:51.816Z,7.90
2023-03-18T02:14:26.976Z,8.25
2023-03-18T02:17:08.534Z,8.05
2023-03-18T02:20:13.148Z,8.38
2023-03-18T02:22:57.622Z,7.95
2023-03-18T02:25:32.806Z,8.25
2023-03-18T02:28:12.401Z,8.07
2023-03-18T02:30:48.976Z,8.43
2023-03-18T02:33:25.979Z,8.20
2023-03-18T02:36:03.369Z,7.85
2023-03-18T02:38:43.053Z,8.18
2023-03-18T02:41:19.756Z,7.78
2023-03-18T02:43:52.264Z,8.32
2023-03-18T02:46:33.001Z,7.82
2023-03-18T02:49:08.037Z,7.70
2023-03-18T02:51:41.909Z,7.97
2023-03-18T02:54:18.303Z,8.45
2023-03-18T02:56:50.991Z,8.00
2023-03-18T02:59:23.588Z,8.18
2023-03-18T03:01:55.810Z,8.18
2023-03-18T03:04:28.489Z,8.63
2023-03-18T03:07:01.633Z,8.68
2023-03-18T03:09:42.565Z,8.25
2023-03-18T03:12:14.521Z,8.95
2023-03-18T03:14:52.760Z,7.93
2023-03-18T03:17:25.426Z,8.75
2023-03-18T03:19:57.966Z,9.07
2023-03-18T03:22:30.384Z,8.93
2023-03-18T03:25:02.329Z,8.93
2023-03-18T03:27:34.127Z,8.38
2023-03-18T03:30:09.679Z,8.30
2023-03-18T03:32:41.649Z,8.55
2023-03-18T03:35:18.059Z,8.98
2023-03-18T03:37:50.400Z,8.55
2023-03-18T03:40:22.416Z,8.82
2023-03-18T03:42:56.272Z,8.48
2023-03-18T03:45:28.622Z,8.63
2023-03-18T03:48:01.608Z,8.98
2023-03-18T03:50:34.040Z,9.15
2023-03-18T03:53:07.847Z,8.52
2023-03-18T03:55:39.748Z,8.10
2023-03-18T03:58:12.044Z,8.70
2023-03-18T04:00:44.850Z,8.38
2023-03-18T04:03:16.763Z,8.23
2023-03-18T04:05:49.489Z,8.77
2023-03-18T04:08:25.215Z,8.52
2023-03-18T04:10:57.864Z,8.25
2023-03-18T04:13:30.056Z,9.02
2023-03-18T04:16:02.104Z,9.43
2023-03-18T04:18:35.326Z,8.48
2023-03-18T04:21:08.854Z,9.32
2023-03-18T04:24:00.527Z,9.55
2023-03-18T04:26:32.947Z,9.43
2023-03-18T04:29:08.666Z,9.35
2023-03-18T04:31:40.717Z,8.90
2023-03-18T04:34:13.694Z,9.13
2023-03-18T04:36:46.067Z,8.60
2023-03-18T04:39:18.103Z,9.38
2023-03-18T04:41:50.214Z,10.00
2023-03-18T04:44:22.079Z,10.18
2023-03-18T04:46:57.062Z,10.57
2023-03-18T04:49:29.872Z,11.57
2023-03-18T04:52:02.412Z,12.13
2023-03-18T04:54:39.129Z,13.68
2023-03-18T04:57:12.684Z,13.40
2023-03-18T04:59:52.526Z,12.27
2023-03-18T05:02:24.728Z,12.50
2023-03-18T05:04:57.565Z,11.68
2023-03-18T05:07:30.029Z,12.02
2023-03-18T05:10:09.016Z,11.30
2023-03-18T05:12:42.122Z,11.20
2023-03-18T05:15:15.691Z,11.73
2023-03-18T05:17:53.720Z,11.15
2023-03-18T05:20:26.483Z,13.00
2023-03-18T05:22:58.816Z,14.40
2023-03-18T05:25:38.603Z,15.02
2023-03-18T05:28:11.448Z,15.13
2023-03-18T05:30:54.133Z,15.55
2023-03-18T05:33:26.010Z,14.55
2023-03-18T05:36:00.831Z,13.48
2023-03-18T05:38:39.987Z,14.25
2023-03-18T05:41:12.785Z,15.25
2023-03-18T05:43:47.557Z,14.48
2023-03-18T05:46:19.815Z,14.05
2023-03-18T05:49:01.416Z,14.20
2023-03-18T05:51:39.345Z,12.30
2023-03-18T05:54:14.195Z,12.90
2023-03-18T05:56:49.859Z,12.25
2023-03-18T05:59:23.855Z,12.25
2023-03-18T06:02:01.645Z,11.65
2023-03-18T06:04:33.569Z,11.32
2023-03-18T06:07:06.190Z,10.55
2023-03-18T06:09:39.469Z,11.20
2023-03-18T06:12:11.506Z,10.32
2023-03-18T06:14:43.909Z,10.23
2023-03-18T06:17:16.525Z,11.05
2023-03-18T06:19:48.580Z,10.27
2023-03-18T06:22:20.605Z,11.10
2023-03-18T06:24:53.687Z,11.30
2023-03-18T06:27:26.126Z,11.50
2023-03-18T06:30:04.630Z,11.38
2023-03-18T06:32:40.385Z,11.43
2023-03-18T06:35:13.227Z,11.63
2023-03-18T06:37:45.189Z,11.38
2023-03-18T06:40:17.448Z,11.25
2023-03-18T06:42:50.164Z,10.73
2023-03-18T06:45:40.282Z,11.60
2023-03-18T06:48:13.812Z,19.65
2023-03-18T06:50:47.841Z,11.32
2023-03-18T06:53:28.090Z,10.05
2023-03-18T06:56:00.465Z,10.70
2023-03-18T06:58:40.840Z,10.57
2023-03-18T07:01:14.364Z,11.65
2023-03-18T07:03:49.854Z,10.70
2023-03-18T07:06:22.744Z,10.05
2023-03-18T07:08:54.699Z,10.07
2023-03-18T07:11:27.344Z,13.95
2023-03-18T07:14:00.610Z,10.23
2023-03-18T07:16:37.064Z,10.30
2023-03-18T07:19:09.929Z,36.28
2023-03-18T07:21:43.013Z,31.35
2023-03-18T07:24:15.018Z,24.25
2023-03-18T07:26:47.227Z,12.98
2023-03-18T07:29:19.576Z,11.73
2023-03-18T07:31:51.460Z,13.40
2023-03-18T07:34:23.408Z,10.95
2023-03-18T07:36:55.720Z,10.60
2023-03-18T07:39:27.735Z,10.23
2023-03-18T07:42:00.349Z,9.73
2023-03-18T07:44:36.073Z,9.38
2023-03-18T07:47:07.978Z,10.35
2023-03-18T07:49:39.896Z,10.77
2023-03-18T07:52:12.254Z,10.27
2023-03-18T07:54:44.271Z,10.20
2023-03-18T07:57:17.242Z,9.65
2023-03-18T07:59:49.515Z,10.07
2023-03-18T08:02:21.874Z,9.88
2023-03-18T08:04:54.274Z,9.95
2023-03-18T08:07:26.404Z,10.45
2023-03-18T08:09:58.338Z,10.50
2023-03-18T08:12:41.649Z,10.20
2023-03-18T08:15:22.505Z,10.60
2023-03-18T08:17:54.407Z,8.60
2023-03-18T08:20:29.998Z,9.38
2023-03-18T08:23:03.865Z,9.68
2023-03-18T08:25:36.043Z,9.50
2023-03-18T08:28:08.328Z,9.98
2023-03-18T08:30:40.675Z,10.52
2023-03-18T08:33:13.065Z,10.18
2023-03-18T08:35:45.984Z,10.10
2023-03-18T08:38:19.223Z,10.35
2023-03-18T08:40:51.622Z,10.30
2023-03-18T08:43:23.976Z,10.25
2023-03-18T08:45:56.598Z,10.68
2023-03-18T08:48:28.475Z,10.98
2023-03-18T08:51:01.366Z,10.48
2023-03-18T08:53:33.223Z,10.60
2023-03-18T08:56:08.873Z,10.32
2023-03-18T08:58:41.114Z,10.65
2023-03-18T09:01:13.336Z,10.80
2023-03-18T09:03:51.960Z,11.35
2023-03-18T09:06:29.655Z,10.98
2023-03-18T09:09:01.519Z,11.35
2023-03-18T09:11:33.858Z,10.90
2023-03-18T09:14:05.695Z,11.55
2023-03-18T09:16:40.964Z,11.63
2023-03-18T09:19:12.932Z,11.65
2023-03-18T09:21:45.923Z,11.98
2023-03-18T09:24:17.873Z,12.35
2023-03-18T09:26:49.695Z,11.57
2023-03-18T09:29:21.673Z,12.38
2023-03-18T09:31:53.611Z,12.65
2023-03-18T09:34:25.422Z,12.30
2023-03-18T09:36:58.222Z,13.13
2023-03-18T09:39:30.281Z,13.90
2023-03-18T09:42:10.627Z,12.70
2023-03-18T09:44:43.852Z,12.82
2023-03-18T09:47:44.426Z,12.98
2023-03-18T09:50:22.514Z,12.82
2023-03-18T09:53:10.767Z,12.30
2023-03-18T09:56:01.646Z,13.02
2023-03-18T09:59:12.519Z,13.13
2023-03-18T10:01:49.392Z,12.63
2023-03-18T10:04:39.845Z,12.60
2023-03-18T10:07:19.205Z,12.50
2023-03-18T10:09:56.203Z,12.80
2023-03-18T10:12:34.262Z,13.15
2023-03-18T10:15:26.161Z,13.50
2023-03-18T10:18:11.276Z,14.35
2023-03-18T10:20:46.482Z,13.80
2023-03-18T10:23:42.736Z,13.18
2023-03-18T10:26:27.044Z,13.25
2023-03-18T10:29:17.853Z,13.07
2023-03-18T10:31:58.940Z,13.88
2023-03-18T10:34:55.866Z,13.60
2023-03-18T10:37:57.443Z,13.57
2023-03-18T10:43:32.298Z,14.20
2023-03-18T10:46:07.456Z,14.25
2023-03-18T10:49:04.606Z,13.57
2023-03-18T10:52:06.146Z,15.45
2023-03-18T10:57:15.942Z,14.63
2023-03-18T10:59:50.359Z,15.30
2023-03-18T11:02:34.932Z,16.35
2023-03-18T11:05:29.728Z,15.77
2023-03-18T11:08:03.677Z,16.15
2023-03-18T11:10:46.807Z,15.15
2023-03-18T11:13:20.564Z,15.57
2023-03-18T11:15:56.715Z,15.93
2023-03-18T11:18:29.515Z,16.25
2023-03-18T11:21:04.692Z,16.05
2023-03-18T11:24:00.949Z,16.35
2023-03-18T11:26:45.750Z,16.27
2023-03-18T11:29:20.593Z,16.27
2023-03-18T11:32:00.345Z,16.25
2023-03-18T11:34:35.222Z,15.30
2023-03-18T11:37:11.783Z,16.85
2023-03-18T11:39:43.802Z,16.83
2023-03-18T11:42:22.208Z,16.67
2023-03-18T11:45:02.748Z,16.58
2023-03-18T11:47:36.589Z,16.50
2023-03-18T11:50:17.806Z,17.35
2023-03-18T11:55:39.366Z,17.27
2023-03-18T11:58:34.165Z,17.52
2023-03-18T12:01:26.695Z,17.88
2023-03-18T12:04:16.727Z,17.70
2023-03-18T12:07:20.526Z,17.80
2023-03-18T12:10:24.315Z,17.40
2023-03-18T12:13:15.692Z,18.10
2023-03-18T12:16:04.134Z,18.38
2023-03-18T12:18:53.104Z,17.73
2023-03-18T12:21:39.510Z,17.75
2023-03-18T12:24:21.052Z,17.95
2023-03-18T12:27:26.160Z,18.20
2023-03-18T12:30:10.037Z,18.98
2023-03-18T12:32:52.083Z,17.80
2023-03-18T12:35:45.056Z,19.13
2023-03-18T12:38:40.866Z,19.67
2023-03-18T12:41:18.504Z,18.20
2023-03-18T12:44:11.974Z,19.13
2023-03-18T12:47:00.627Z,20.17
2023-03-18T12:49:44.758Z,19.83
2023-03-18T12:52:36.518Z,19.42
2023-03-18T12:55:21.728Z,19.45
2023-03-18T12:58:01.432Z,18.52
2023-03-18T13:01:08.168Z,18.27
2023-03-18T13:03:42.932Z,19.38
2023-03-18T13:06:26.670Z,18.67
2023-03-18T13:09:13.341Z,20.23
2023-03-18T13:12:22.391Z,19.05
2023-03-18T13:15:45.329Z,19.30
2023-03-18T13:18:48.558Z,20.05
2023-03-18T13:21:24.517Z,18.77
2023-03-18T13:24:04.804Z,19.73
2023-03-18T13:26:58.076Z,19.60
2023-03-18T13:29:46.971Z,20.70
2023-03-18T13:32:55.932Z,20.15
2023-03-18T13:35:44.899Z,20.67
2023-03-18T13:38:25.739Z,20.30
2023-03-18T13:41:18.000Z,21.00
2023-03-18T13:43:51.208Z,20.58
2023-03-18T13:46:27.301Z,20.67
2023-03-18T13:49:01.932Z,20.40
2023-03-18T13:51:34.248Z,20.67
2023-03-18T13:54:15.457Z,21.15
2023-03-18T13:56:52.952Z,20.95
2023-03-18T13:59:34.206Z,20.55
2023-03-18T14:02:31.304Z,21.27
2023-03-18T14:05:04.134Z,31.92
2023-03-18T14:07:48.030Z,26.35
2023-03-18T14:10:20.649Z,20.70
2023-03-18T14:12:52.741Z,21.13
2023-03-18T14:15:41.806Z,21.17
2023-03-18T14:18:27.272Z,21.55
2023-03-18T14:21:02.678Z,23.38
2023-03-18T14:24:02.597Z,22.13
2023-03-18T14:26:34.534Z,20.35
2023-03-18T14:29:06.397Z,21.38
2023-03-18T14:31:43.706Z,21.85
2023-03-18T14:34:18.891Z,20.08
2023-03-18T14:36:53.558Z,20.88
2023-03-18T14:39:46.652Z,25.60
2023-03-18T14:42:42.840Z,24.58
2023-03-18T14:45:23.580Z,21.85
2023-03-18T14:47:57.769Z,22.23
2023-03-18T14:50:35.916Z,53.97
2023-03-18T14:53:29.025Z,27.48
2023-03-18T14:56:03.828Z,25.80
2023-03-18T14:58:35.863Z,21.73
2023-03-18T15:01:10.959Z,23.17
2023-03-18T15:03:46.308Z,22.02
2023-03-18T15:06:26.819Z,27.55
2023-03-18T15:09:05.997Z,23.80
2023-03-18T15:11:39.974Z,25.58
2023-03-18T15:14:17.958Z,22.90
2023-03-18T15:16:52.189Z,21.55
2023-03-18T15:19:24.949Z,21.13
2023-03-18T15:22:05.770Z,21.25
2023-03-18T15:24:37.752Z,21.20
2023-03-18T15:27:17.862Z,21.23
2023-03-18T15:29:54.202Z,21.25
2023-03-18T15:32:31.540Z,20.65
2023-03-18T15:35:26.383Z,21.25
2023-03-18T15:38:11.003Z,21.15
2023-03-18T15:40:50.402Z,20.85
2023-03-18T15:43:45.020Z,25.45
2023-03-18T15:46:30.994Z,21.48
2023-03-18T15:49:05.685Z,22.52
2023-03-18T15:51:49.770Z,22.58
2023-03-18T15:54:28.658Z,21.92
2023-03-18T15:57:12.508Z,21.17
2023-03-18T15:59:44.487Z,20.60
2023-03-18T16:02:18.747Z,21.05
2023-03-18T16:04:50.616Z,20.60
2023-03-18T16:07:26.736Z,21.75
2023-03-18T16:09:58.607Z,21.65
2023-03-18T16:12:33.633Z,20.85
2023-03-18T16:15:07.694Z,20.95
2023-03-18T16:17:39.754Z,22.80
2023-03-18T16:20:19.228Z,21.60
2023-03-18T16:22:51.969Z,21.88
2023-03-18T16:25:27.913Z,22.27
2023-03-18T16:28:00.698Z,20.55
2023-03-18T16:30:33.928Z,21.77
2023-03-18T16:33:09.326Z,22.33
2023-03-18T16:35:45.632Z,20.75
2023-03-18T16:38:18.202Z,20.80
2023-03-18T16:40:54.855Z,22.15
2023-03-18T16:43:29.161Z,22.85
2023-03-18T16:46:05.836Z,21.50
2023-03-18T16:48:38.073Z,22.10
2023-03-18T16:51:10.735Z,22.60
2023-03-18T16:53:44.005Z,22.30
2023-03-18T16:56:22.105Z,22.23
2023-03-18T16:58:58.021Z,23.17
2023-03-18T17:01:30.294Z,23.23
2023-03-18T17:04:12.609Z,23.70
2023-03-18T17:06:47.677Z,23.23
2023-03-18T17:09:19.664Z,25.00
2023-03-18T17:11:53.891Z,28.48
2023-03-18T17:14:39.758Z,29.58
2023-03-18T17:17:22.485Z,27.92
2023-03-18T17:19:56.107Z,25.13
2023-03-18T17:22:30.817Z,26.17
2023-03-18T17:25:02.769Z,24.23
2023-03-18T17:27:49.698Z,27.13
2023-03-18T17:30:22.953Z,24.10
2023-03-18T17:32:55.589Z,63.05
2023-03-18T17:35:27.728Z,84.60
2023-03-18T17:37:59.754Z,43.97
2023-03-18T17:40:33.041Z,31.52
2023-03-18T17:43:04.839Z,25.90
2023-03-18T17:45:36.657Z,24.65
2023-03-18T17:48:26.399Z,24.75
2023-03-18T17:51:01.074Z,24.33
2023-03-18T17:53:42.930Z,25.48
2023-03-18T17:56:17.344Z,24.52
2023-03-18T17:58:51.488Z,26.98
2023-03-18T18:01:28.559Z,26.20
2023-03-18T18:04:04.962Z,24.70
2023-03-18T18:06:36.962Z,25.50
2023-03-18T18:09:13.334Z,25.33
2023-03-18T18:11:47.044Z,24.30
2023-03-18T18:14:26.047Z,35.55
2023-03-18T18:17:02.614Z,26.48
2023-03-18T18:19:37.112Z,26.40
2023-03-18T18:22:19.038Z,25.67
2023-03-18T18:24:52.866Z,26.30
2023-03-18T18:27:24.779Z,27.15
2023-03-18T18:29:56.747Z,25.35
2023-03-18T18:32:28.809Z,26.75
2023-03-18T18:35:00.608Z,25.65
2023-03-18T18:37:33.670Z,25.75
2023-03-18T18:40:06.847Z,26.05
2023-03-18T18:42:40.921Z,28.73
2023-03-18T18:45:19.270Z,28.70
2023-03-18T18:47:51.796Z,26.85
2023-03-18T18:50:39.837Z,27.67
2023-03-18T18:53:20.042Z,27.98
2023-03-18T18:56:01.039Z,27.55
2023-03-18T18:58:33.789Z,29.90
2023-03-18T19:01:06.463Z,26.58
2023-03-18T19:03:39.022Z,28.48
2023-03-18T19:06:40.933Z,27.57
2023-03-18T19:09:39.110Z,27.88
2023-03-18T19:12:15.883Z,29.25
2023-03-18T19:14:48.009Z,38.30
2023-03-18T19:17:21.853Z,27.67
2023-03-18T19:19:53.764Z,35.08
2023-03-18T19:22:26.290Z,52.60
2023-03-18T19:24:58.757Z,44.28
2023-03-18T19:27:32.474Z,35.45
2023-03-18T19:30:23.586Z,42.92
2023-03-18T19:32:55.957Z,45.90
2023-03-18T19:35:28.994Z,40.58
2023-03-18T19:38:01.064Z,33.95
2023-03-18T19:40:34.135Z,32.30
2023-03-18T19:43:18.341Z,30.73
2023-03-18T19:45:51.921Z,32.70
2023-03-18T19:48:28.882Z,30.42
2023-03-18T19:51:01.393Z,26.88
2023-03-18T19:53:33.977Z,26.33
2023-03-18T19:56:08.544Z,26.25
2023-03-18T19:58:41.441Z,26.42
2023-03-18T20:01:13.544Z,27.83
2023-03-18T20:03:45.758Z,27.80
2023-03-18T20:06:17.788Z,29.27
2023-03-18T20:08:50.488Z,28.77
2023-03-18T20:11:22.773Z,26.90
2023-03-18T20:13:54.788Z,25.33
2023-03-18T20:16:28.486Z,25.15
2023-03-18T20:19:00.672Z,25.23
2023-03-18T20:21:34.936Z,24.42
2023-03-18T20:24:10.585Z,22.85
2023-03-18T20:26:43.085Z,20.14
2023-03-18T20:29:19.998Z,22.83
2023-03-18T20:31:52.090Z,24.05
2023-03-18T20:34:24.014Z,25.23
2023-03-18T20:36:55.994Z,23.85
2023-03-18T20:39:27.865Z,24.42
2023-03-18T20:41:59.743Z,24.15
2023-03-18T20:44:33.161Z,23.70
2023-03-18T20:47:05.079Z,24.77
2023-03-18T20:49:38.023Z,23.58
2023-03-18T20:52:26.642Z,24.98
2023-03-18T20:54:58.925Z,24.17
2023-03-18T20:57:30.804Z,23.90
2023-03-18T21:00:07.015Z,23.23
2023-03-18T21:02:38.901Z,22.33
2023-03-18T21:05:11.175Z,22.67
2023-03-18T21:07:43.644Z,22.30
2023-03-18T21:10:22.126Z,23.20
2023-03-18T21:12:54.421Z,23.45
2023-03-18T21:15:28.182Z,22.35
2023-03-18T21:17:59.972Z,20.58
2023-03-18T21:20:32.652Z,21.52
2023-03-18T21:23:04.577Z,21.52
2023-03-18T21:25:36.511Z,22.40
2023-03-18T21:28:14.467Z,21.60
2023-03-18T21:30:48.984Z,20.38
2023-03-18T21:33:29.519Z,20.52
2023-03-18T21:36:02.871Z,20.33
2023-03-18T21:38:35.043Z,21.17
2023-03-18T21:41:21.269Z,20.98
2023-03-18T21:43:53.493Z,20.58
2023-03-18T21:46:27.183Z,21.95
2023-03-18T21:48:59.250Z,22.73
2023-03-18T21:51:41.155Z,21.65
2023-03-18T21:54:18.792Z,21.27
2023-03-18T21:56:50.717Z,22.92
2023-03-18T21:59:23.229Z,23.55
2023-03-18T22:01:55.367Z,20.42
2023-03-18T22:04:27.377Z,20.95
2023-03-18T22:06:59.354Z,21.25
2023-03-18T22:09:31.411Z,22.15
2023-03-18T22:12:03.391Z,21.58
2023-03-18T22:14:35.164Z,21.85
2023-03-18T22:17:27.204Z,22.50
2023-03-18T22:20:01.444Z,21.63
2023-03-18T22:22:37.060Z,20.80
2023-03-18T22:25:32.452Z,21.60
2023-03-18T22:28:05.096Z,21.05
2023-03-18T22:30:37.050Z,21.95
2023-03-18T22:33:17.140Z,21.58
2023-03-18T22:35:49.230Z,21.63
2023-03-18T22:38:22.335Z,20.65
2023-03-18T22:40:56.413Z,19.17
2023-03-18T22:43:31.640Z,20.38
2023-03-18T22:46:09.146Z,20.88
2023-03-18T22:48:41.221Z,20.60
2023-03-18T22:51:24.640Z,21.15
2023-03-18T22:53:56.794Z,20.90
2023-03-18T22:56:32.121Z,22.17
2023-03-18T22:59:04.590Z,20.20
2023-03-18T23:01:37.338Z,21.13
2023-03-18T23:04:12.220Z,21.45
2023-03-18T23:06:44.171Z,22.15
2023-03-18T23:09:16.274Z,21.30
2023-03-18T23:11:48.156Z,23.48
2023-03-18T23:14:19.942Z,24.13
2023-03-18T23:16:51.719Z,23.25
2023-03-18T23:19:23.565Z,27.92
2023-03-18T23:21:55.705Z,24.33
2023-03-18T23:24:27.522Z,25.08
2023-03-18T23:26:59.398Z,24.67
2023-03-18T23:29:31.524Z,22.60
2023-03-18T23:32:03.931Z,22.23
2023-03-18T23:34:35.870Z,22.58
2023-03-18T23:37:08.019Z,21.80
2023-03-18T23:39:43.093Z,23.38
2023-03-18T23:42:19.921Z,22.75
2023-03-18T23:44:52.126Z,23.85
2023-03-18T23:47:23.976Z,25.38
2023-03-18T23:49:55.963Z,25.15
2023-03-18T23:52:27.787Z,21.62
2023-03-18T23:54:59.764Z,24.52
2023-03-18T23:57:31.570Z,23.48
